Time;durP1;ratioP1;P1;durP2;ratioP2;P2;SDS_P1;SDS_P2;PMS_P1;PMS_P2;Temp;Humidity;BMP_temperature;BMP_pressure;BME280_temperature;BME280_humidity;BME280_pressure;Samples;Min_cycle;Max_cycle;Signal;HPM_P1;HPM_P2
2023/04/18 00:02:19;;;;;;;3.33;3.03;;;18.50;63.60;;;;;;5049056;28;20210;-46
2023/04/18 00:04:51;;;;;;;3.67;3.27;;;18.50;63.60;;;;;;5069863;28;20221;-46
2023/04/18 00:07:22;;;;;;;3.60;3.07;;;18.50;63.70;;;;;;5068141;28;20209;-47
2023/04/18 00:09:54;;;;;;;4.30;3.33;;;18.50;63.70;;;;;;5069439;28;20258;-46
2023/04/18 00:12:25;;;;;;;4.03;3.67;;;18.50;63.60;;;;;;5077099;28;20259;-47
2023/04/18 00:14:57;;;;;;;4.43;3.60;;;18.40;63.50;;;;;;5063301;28;20240;-47
2023/04/18 00:17:31;;;;;;;3.80;3.40;;;18.50;63.50;;;;;;5078651;28;20193;-47
2023/04/18 00:20:05;;;;;;;4.07;3.67;;;18.40;63.50;;;;;;5059347;28;20228;-47
2023/04/18 00:22:41;;;;;;;3.83;3.47;;;18.40;63.40;;;;;;5067884;28;20192;-47
2023/04/18 00:25:10;;;;;;;3.40;3.10;;;18.40;63.40;;;;;;5043262;28;20212;-46
2023/04/18 00:27:37;;;;;;;3.90;3.30;;;18.40;63.50;;;;;;5067274;28;20620;-47
2023/04/18 00:30:09;;;;;;;3.43;3.13;;;18.40;63.40;;;;;;5073262;28;20208;-47
2023/04/18 00:32:42;;;;;;;3.43;3.13;;;18.40;63.40;;;;;;5068250;28;21079;-47
2023/04/18 00:35:11;;;;;;;4.23;3.83;;;18.40;63.30;;;;;;5047452;28;20240;-47
2023/04/18 00:37:38;;;;;;;3.47;3.23;;;18.40;63.30;;;;;;5065505;28;20213;-47
2023/04/18 00:40:10;;;;;;;3.93;3.60;;;18.40;63.30;;;;;;5067307;28;20538;-46
2023/04/18 00:42:43;;;;;;;3.53;3.13;;;18.30;63.20;;;;;;5069032;28;20597;-47
2023/04/18 00:45:12;;;;;;;3.40;3.10;;;18.30;63.20;;;;;;5073695;28;20190;-46
2023/04/18 00:47:42;;;;;;;4.13;3.30;;;18.30;63.10;;;;;;5060811;28;20205;-46
2023/04/18 00:50:10;;;;;;;3.57;3.20;;;18.40;63.10;;;;;;5054663;28;20209;-46
2023/04/18 00:52:42;;;;;;;4.30;3.57;;;18.30;63.10;;;;;;5057795;28;20202;-46
2023/04/18 00:55:10;;;;;;;3.50;3.20;;;18.30;63.10;;;;;;5066372;28;20217;-47
2023/04/18 00:57:41;;;;;;;3.83;3.43;;;18.40;63.30;;;;;;5058177;28;20194;-47
2023/04/18 01:00:12;;;;;;;3.70;3.40;;;18.30;63.10;;;;;;5064387;28;20532;-47
2023/04/18 01:02:42;;;;;;;3.77;2.90;;;18.30;63.20;;;;;;5041607;28;20820;-46
2023/04/18 01:05:11;;;;;;;3.43;3.13;;;18.30;63.20;;;;;;5066566;28;20213;-47
2023/04/18 01:07:42;;;;;;;3.50;3.20;;;18.30;63.20;;;;;;5066932;28;20204;-47
2023/04/18 01:10:12;;;;;;;3.23;2.93;;;18.30;63.20;;;;;;5067098;28;20224;-47
2023/04/18 01:12:41;;;;;;;4.13;3.30;;;18.30;63.20;;;;;;5063156;28;20746;-46
2023/04/18 01:15:08;;;;;;;3.50;3.20;;;18.30;63.20;;;;;;5025456;28;20218;-47
2023/04/18 01:17:42;;;;;;;3.73;3.33;;;18.30;63.20;;;;;;5066196;28;20186;-47
2023/04/18 01:20:15;;;;;;;3.30;3.00;;;18.20;63.10;;;;;;5068398;28;20267;-47
2023/04/18 01:22:44;;;;;;;3.97;2.73;;;18.30;63.10;;;;;;5067368;28;20182;-46
2023/04/18 01:25:17;;;;;;;3.37;3.07;;;18.30;63.10;;;;;;5068771;28;20224;-47
2023/04/18 01:27:48;;;;;;;3.20;2.90;;;18.30;63.10;;;;;;5071682;28;20240;-47
2023/04/18 01:30:18;;;;;;;3.60;3.30;;;18.20;63.00;;;;;;5077070;28;20527;-47
2023/04/18 01:32:46;;;;;;;3.47;3.17;;;18.20;63.00;;;;;;5079158;28;20190;-47
2023/04/18 01:35:18;;;;;;;3.50;3.20;;;18.20;63.00;;;;;;5066182;28;20245;-47
2023/04/18 01:37:49;;;;;;;3.20;2.90;;;18.20;62.90;;;;;;5068848;28;20643;-46
2023/04/18 01:40:19;;;;;;;3.33;3.03;;;18.20;62.90;;;;;;5063457;28;20488;-47
2023/04/18 01:42:51;;;;;;;5.17;3.40;;;18.20;62.80;;;;;;5070893;28;20269;-47
2023/04/18 01:45:21;;;;;;;3.40;3.10;;;18.20;62.90;;;;;;5071869;28;20202;-46
2023/04/18 01:47:55;;;;;;;3.13;2.83;;;18.20;62.80;;;;;;5074882;28;20234;-47
2023/04/18 01:50:26;;;;;;;3.17;2.87;;;18.20;62.90;;;;;;5077932;28;20220;-46
2023/04/18 01:52:54;;;;;;;3.30;3.00;;;18.20;62.80;;;;;;5065506;28;20221;-46
2023/04/18 01:55:25;;;;;;;3.83;2.80;;;18.20;62.80;;;;;;5072268;28;20226;-46
2023/04/18 01:57:53;;;;;;;3.80;3.10;;;18.20;62.80;;;;;;5076413;28;20689;-46
2023/04/18 02:00:23;;;;;;;3.07;2.87;;;18.10;62.80;;;;;;5072828;28;20201;-47
2023/04/18 02:02:52;;;;;;;3.47;3.17;;;18.10;62.70;;;;;;5067515;28;20214;-46
2023/04/18 02:05:25;;;;;;;3.10;2.80;;;18.10;62.70;;;;;;5071162;28;20197;-46
2023/04/18 02:07:58;;;;;;;2.93;2.73;;;18.10;62.70;;;;;;5071364;28;20190;-46
2023/04/18 02:10:29;;;;;;;2.87;2.67;;;18.10;62.60;;;;;;5059103;28;20631;-46
2023/04/18 02:12:55;;;;;;;3.30;3.00;;;18.10;62.70;;;;;;5041492;28;20661;-47
2023/04/18 02:15:26;;;;;;;3.57;3.27;;;18.10;62.70;;;;;;5078196;28;20283;-46
2023/04/18 02:17:58;;;;;;;3.50;3.20;;;18.10;62.70;;;;;;5083055;28;20211;-47
2023/04/18 02:20:32;;;;;;;3.87;3.57;;;18.10;62.60;;;;;;5090479;28;20228;-47
2023/04/18 02:23:03;;;;;;;3.80;3.50;;;18.10;62.60;;;;;;5056682;28;20197;-46
2023/04/18 02:25:37;;;;;;;3.13;2.83;;;18.10;62.50;;;;;;5059128;28;20210;-46
2023/04/18 02:28:09;;;;;;;3.70;3.30;;;18.00;62.40;;;;;;5071677;28;20240;-46
2023/04/18 02:30:41;;;;;;;3.60;3.30;;;18.10;62.50;;;;;;5091128;28;20185;-47
2023/04/18 02:33:12;;;;;;;3.83;3.53;;;18.00;62.50;;;;;;5053629;28;20198;-47
2023/04/18 02:35:43;;;;;;;3.47;3.07;;;18.10;62.50;;;;;;5052264;28;20263;-47
2023/04/18 02:38:13;;;;;;;3.33;3.03;;;18.00;62.40;;;;;;5068017;28;20217;-47
2023/04/18 02:40:43;;;;;;;4.17;3.63;;;18.00;62.30;;;;;;5073618;28;20193;-47
2023/04/18 02:43:11;;;;;;;3.50;3.20;;;18.00;62.30;;;;;;5056941;28;20196;-47
2023/04/18 02:45:39;;;;;;;3.73;3.43;;;18.00;62.30;;;;;;5090727;28;20582;-47
2023/04/18 02:48:09;;;;;;;3.87;3.37;;;18.00;62.30;;;;;;5080929;28;20608;-47
2023/04/18 02:50:39;;;;;;;3.60;3.30;;;18.00;62.40;;;;;;5068073;28;20613;-47
2023/04/18 02:53:08;;;;;;;3.50;3.20;;;18.00;62.40;;;;;;5078858;28;20190;-47
2023/04/18 02:55:38;;;;;;;3.50;3.20;;;18.00;62.40;;;;;;5082640;28;20229;-47
2023/04/18 02:58:19;;;;;;;4.00;3.30;;;18.00;62.40;;;;;;5080179;28;20262;-46
2023/04/18 03:00:51;;;;;;;3.47;3.10;;;17.90;62.30;;;;;;5072720;28;20614;-46
2023/04/18 03:03:35;;;;;;;3.40;3.10;;;17.90;62.40;;;;;;5065264;28;20292;-47
2023/04/18 03:06:10;;;;;;;3.20;2.93;;;17.90;62.40;;;;;;5064930;28;20235;-47
2023/04/18 03:08:42;;;;;;;3.00;2.70;;;17.90;62.40;;;;;;5069503;28;20201;-47
2023/04/18 03:11:10;;;;;;;4.00;3.63;;;18.00;62.50;;;;;;5075022;28;20209;-47
2023/04/18 03:13:41;;;;;;;3.30;3.00;;;17.90;62.40;;;;;;5070269;28;20220;-46
2023/04/18 03:16:12;;;;;;;3.57;3.27;;;17.90;62.40;;;;;;5069164;28;20315;-47
2023/04/18 03:18:47;;;;;;;3.57;2.90;;;17.90;62.30;;;;;;5067145;28;20193;-46
2023/04/18 03:21:18;;;;;;;3.30;3.00;;;17.90;62.30;;;;;;5084396;28;20249;-47
2023/04/18 03:23:48;;;;;;;3.40;3.10;;;17.90;62.30;;;;;;5069608;28;20527;-47
2023/04/18 03:26:18;;;;;;;3.50;3.20;;;17.90;62.30;;;;;;5050377;28;20273;-46
2023/04/18 03:28:49;;;;;;;3.13;2.83;;;17.90;62.40;;;;;;5046475;28;20245;-47
2023/04/18 03:31:26;;;;;;;3.60;3.20;;;17.90;62.30;;;;;;5050513;28;20205;-47
2023/04/18 03:33:56;;;;;;;2.80;2.60;;;17.80;62.30;;;;;;5039396;28;20195;-47
2023/04/18 03:36:27;;;;;;;3.30;3.00;;;17.80;62.30;;;;;;5053615;28;20209;-47
2023/04/18 03:39:01;;;;;;;2.87;2.57;;;17.80;62.30;;;;;;5057169;28;20252;-47
2023/04/18 03:41:31;;;;;;;3.00;2.80;;;17.80;62.30;;;;;;5049964;28;20201;-46
2023/04/18 03:44:02;;;;;;;3.83;3.37;;;17.80;63.00;;;;;;5049466;28;20218;-47
2023/04/18 03:46:32;;;;;;;3.30;3.00;;;17.80;62.30;;;;;;5037502;28;20204;-46
2023/04/18 03:49:01;;;;;;;3.30;3.00;;;17.80;62.30;;;;;;5050362;28;20210;-46
2023/04/18 03:51:33;;;;;;;2.90;2.70;;;17.80;62.30;;;;;;5051607;28;20210;-47
2023/04/18 03:54:06;;;;;;;3.57;3.20;;;17.80;62.30;;;;;;5047123;28;20190;-46
2023/04/18 03:56:37;;;;;;;4.13;3.07;;;17.80;62.30;;;;;;5057248;28;20209;-46
2023/04/18 03:59:06;;;;;;;3.50;3.20;;;17.80;62.80;;;;;;5047045;28;20237;-46
2023/04/18 04:01:34;;;;;;;3.47;3.17;;;17.80;62.30;;;;;;5042098;28;20222;-46
2023/04/18 04:04:13;;;;;;;3.00;2.70;;;17.80;62.20;;;;;;5049453;28;20198;-46
2023/04/18 04:06:44;;;;;;;3.10;2.80;;;17.80;62.20;;;;;;5048855;28;20214;-46
2023/04/18 04:09:13;;;;;;;2.80;2.60;;;17.80;62.30;;;;;;5033247;28;20480;-47
2023/04/18 04:11:42;;;;;;;2.97;2.77;;;17.80;62.30;;;;;;5058351;28;21730;-47
2023/04/18 04:14:09;;;;;;;3.17;2.90;;;17.80;62.30;;;;;;5048051;28;20215;-46
2023/04/18 04:16:38;;;;;;;3.50;2.97;;;17.70;62.10;;;;;;5022709;28;20217;-47
2023/04/18 04:19:06;;;;;;;3.37;3.07;;;17.70;62.10;;;;;;5052155;28;20900;-46
2023/04/18 04:21:35;;;;;;;3.77;3.37;;;17.70;62.20;;;;;;5062344;28;20200;-46
2023/04/18 04:24:05;;;;;;;3.00;2.80;;;17.70;62.10;;;;;;5032189;28;20190;-47
2023/04/18 04:26:35;;;;;;;2.83;2.63;;;17.70;62.00;;;;;;5046071;28;20221;-46
2023/04/18 04:29:09;;;;;;;3.33;3.03;;;17.70;62.00;;;;;;5028923;28;20544;-46
2023/04/18 04:31:38;;;;;;;3.60;3.07;;;17.70;62.00;;;;;;5049809;28;20198;-47
2023/04/18 04:34:07;;;;;;;3.00;2.80;;;17.70;62.10;;;;;;5048796;28;20205;-46
2023/04/18 04:36:36;;;;;;;3.30;3.00;;;17.70;62.10;;;;;;5049020;28;20216;-46
2023/04/18 04:39:07;;;;;;;11.03;3.17;;;17.70;62.60;;;;;;5044797;28;20237;-47
2023/04/18 04:41:40;;;;;;;6.70;3.47;;;17.70;62.90;;;;;;5036353;28;20198;-45
2023/04/18 04:44:09;;;;;;;7.37;3.20;;;17.70;62.90;;;;;;5064224;28;20191;-46
2023/04/18 04:46:46;;;;;;;11.37;3.20;;;17.80;63.10;;;;;;5059906;28;20209;-46
2023/04/18 04:49:15;;;;;;;7.53;3.10;;;17.80;63.30;;;;;;5062617;28;20202;-47
2023/04/18 04:51:47;;;;;;;6.90;3.40;;;17.90;63.00;;;;;;5062847;28;20194;-47
2023/04/18 04:54:32;;;;;;;12.70;3.33;;;17.90;63.90;;;;;;5069852;28;20236;-47
2023/04/18 04:57:02;;;;;;;3.60;2.60;;;17.90;63.10;;;;;;5052882;28;20268;-46
2023/04/18 04:59:45;;;;;;;4.00;2.97;;;17.80;62.90;;;;;;5050293;28;20281;-47
2023/04/18 05:02:17;;;;;;;5.97;3.27;;;17.80;62.70;;;;;;5054747;28;20231;-47
2023/04/18 05:04:47;;;;;;;3.33;2.80;;;17.80;62.50;;;;;;5057931;28;20198;-47
2023/04/18 05:07:20;;;;;;;3.70;3.00;;;17.80;62.30;;;;;;5056685;28;20631;-47
2023/04/18 05:09:52;;;;;;;5.10;2.93;;;17.70;62.30;;;;;;5064003;28;20201;-48
2023/04/18 05:12:23;;;;;;;4.43;3.17;;;17.70;62.20;;;;;;5066420;28;20191;-50
2023/04/18 05:14:55;;;;;;;3.90;3.10;;;17.80;62.20;;;;;;5058400;28;20214;-53
2023/04/18 05:17:25;;;;;;;3.90;3.40;;;17.70;62.10;;;;;;5063218;28;20203;-48
2023/04/18 05:19:56;;;;;;;6.90;3.00;;;17.70;62.00;;;;;;5053841;28;20202;-46
2023/04/18 05:22:27;;;;;;;4.20;3.27;;;17.70;62.00;;;;;;5047404;28;20195;-47
2023/04/18 05:24:57;;;;;;;3.40;3.03;;;17.60;61.70;;;;;;5050189;28;20230;-47
2023/04/18 05:27:28;;;;;;;3.57;3.20;;;17.70;61.50;;;;;;5034896;28;20675;-47
2023/04/18 05:30:00;;;;;;;3.80;3.40;;;17.60;61.50;;;;;;5071034;28;20197;-47
2023/04/18 05:32:31;;;;;;;3.90;3.50;;;17.60;61.50;;;;;;5084168;28;20262;-46
2023/04/18 05:35:02;;;;;;;5.13;3.53;;;17.60;61.80;;;;;;5074369;28;20185;-47
2023/04/18 05:37:31;;;;;;;10.57;4.67;;;17.60;62.20;;;;;;5070100;28;20395;-47
2023/04/18 05:40:04;;;;;;;17.47;5.03;;;17.60;62.70;;;;;;5076102;28;20977;-47
2023/04/18 05:42:34;;;;;;;12.10;4.73;;;17.60;62.60;;;;;;5069079;28;20274;-47
2023/04/18 05:45:06;;;;;;;10.47;4.80;;;17.60;62.30;;;;;;5090188;28;20193;-47
2023/04/18 05:47:34;;;;;;;9.20;4.70;;;17.60;62.20;;;;;;5092291;28;20192;-47
2023/04/18 05:50:04;;;;;;;6.47;4.77;;;17.60;62.10;;;;;;5093089;28;20361;-47
2023/04/18 05:52:35;;;;;;;9.87;4.70;;;17.60;61.90;;;;;;5090816;28;20216;-46
2023/04/18 05:55:06;;;;;;;12.37;5.20;;;17.60;61.90;;;;;;5090585;28;20254;-47
2023/04/18 05:57:36;;;;;;;8.07;4.63;;;17.60;61.90;;;;;;5092535;28;20213;-47
2023/04/18 06:00:11;;;;;;;6.07;4.30;;;17.60;61.90;;;;;;5097800;28;20254;-46
2023/04/18 06:02:42;;;;;;;9.37;4.77;;;17.60;61.70;;;;;;5098416;28;20225;-47
2023/04/18 06:05:12;;;;;;;9.33;4.47;;;17.60;61.70;;;;;;5082153;28;20219;-46
2023/04/18 06:07:42;;;;;;;7.07;4.20;;;17.60;61.50;;;;;;5080431;28;20205;-47
2023/04/18 06:10:12;;;;;;;8.23;4.10;;;17.50;61.50;;;;;;5103288;28;20203;-47
2023/04/18 06:12:42;;;;;;;5.00;3.97;;;17.60;61.40;;;;;;5100113;28;20193;-47
2023/04/18 06:15:10;;;;;;;6.10;4.20;;;17.60;61.20;;;;;;5089250;28;20290;-46
2023/04/18 06:17:41;;;;;;;6.50;4.40;;;17.60;61.10;;;;;;5092287;28;20224;-47
2023/04/18 06:20:15;;;;;;;5.60;4.13;;;17.50;61.00;;;;;;5093727;28;20247;-48
2023/04/18 06:22:43;;;;;;;6.43;4.10;;;17.50;61.00;;;;;;5106256;28;20205;-47
2023/04/18 06:25:13;;;;;;;6.63;4.30;;;17.50;61.00;;;;;;5092137;28;20199;-46
2023/04/18 06:27:41;;;;;;;5.83;3.93;;;17.50;60.90;;;;;;5089726;28;20213;-47
2023/04/18 06:30:20;;;;;;;5.97;3.60;;;17.60;60.90;;;;;;5075911;28;20189;-47
2023/04/18 06:32:51;;;;;;;4.40;3.83;;;17.50;60.90;;;;;;5086361;28;20196;-47
2023/04/18 06:35:22;;;;;;;4.57;3.33;;;17.50;60.70;;;;;;5103889;28;20207;-47
2023/04/18 06:37:54;;;;;;;4.47;3.63;;;17.60;60.90;;;;;;5076337;28;20206;-47
2023/04/18 06:40:25;;;;;;;5.87;3.97;;;17.50;60.70;;;;;;5089628;28;20213;-46
2023/04/18 06:42:55;;;;;;;5.13;3.80;;;17.50;60.70;;;;;;5072584;28;20250;-47
2023/04/18 06:45:28;;;;;;;4.33;3.60;;;17.50;60.70;;;;;;5091557;28;20586;-47
2023/04/18 06:47:58;;;;;;;6.40;3.63;;;17.50;60.70;;;;;;5072316;28;20204;-46
2023/04/18 06:50:32;;;;;;;6.70;4.00;;;17.50;60.60;;;;;;5077548;28;20622;-47
2023/04/18 06:53:02;;;;;;;4.00;3.43;;;17.50;60.60;;;;;;5088983;28;20212;-47
2023/04/18 06:55:34;;;;;;;4.53;3.67;;;17.50;60.50;;;;;;5076377;28;20318;-46
2023/04/18 06:58:06;;;;;;;4.30;3.43;;;17.50;60.50;;;;;;5083564;28;20203;-47
2023/04/18 07:00:38;;;;;;;5.47;3.43;;;17.50;60.60;;;;;;5092017;28;20219;-47
2023/04/18 07:03:11;;;;;;;6.50;3.60;;;17.60;60.50;;;;;;5086941;28;20552;-47
2023/04/18 07:05:42;;;;;;;4.23;3.37;;;17.50;60.50;;;;;;5074813;28;20200;-46
2023/04/18 07:08:14;;;;;;;5.53;3.70;;;17.50;60.60;;;;;;5090855;28;20185;-47
2023/04/18 07:10:43;;;;;;;4.70;3.57;;;17.50;60.40;;;;;;5092413;28;20193;-47
2023/04/18 07:13:12;;;;;;;3.93;3.60;;;17.50;60.60;;;;;;5091830;28;20255;-47
2023/04/18 07:15:40;;;;;;;3.90;3.50;;;17.50;60.40;;;;;;5089000;28;20217;-47
2023/04/18 07:18:09;;;;;;;4.03;3.63;;;17.50;60.40;;;;;;5090842;28;20523;-46
2023/04/18 07:20:46;;;;;;;4.30;3.87;;;17.60;60.60;;;;;;5099380;28;20232;-47
2023/04/18 07:23:20;;;;;;;4.03;3.70;;;17.50;60.60;;;;;;5081856;28;20193;-47
2023/04/18 07:25:52;;;;;;;4.03;3.10;;;17.50;60.50;;;;;;5073275;28;20217;-47
2023/04/18 07:28:22;;;;;;;5.27;3.63;;;17.50;60.40;;;;;;5105178;28;20869;-47
2023/04/18 07:30:54;;;;;;;4.30;3.53;;;17.50;60.40;;;;;;5094433;28;20559;-47
2023/04/18 07:33:32;;;;;;;4.80;3.13;;;17.50;60.20;;;;;;5091725;28;20626;-47
2023/04/18 07:36:06;;;;;;;3.73;3.03;;;17.60;60.20;;;;;;5110682;28;20243;-46
2023/04/18 07:38:43;;;;;;;4.07;3.23;;;17.60;60.10;;;;;;5087542;28;20533;-47
2023/04/18 07:41:12;;;;;;;4.40;3.50;;;17.60;60.00;;;;;;5098562;28;20649;-47
2023/04/18 07:43:44;;;;;;;3.30;3.00;;;17.60;59.90;;;;;;5098120;28;20268;-47
2023/04/18 07:46:16;;;;;;;3.67;3.23;;;17.60;59.90;;;;;;5097520;28;20208;-47
2023/04/18 07:48:47;;;;;;;4.97;3.33;;;17.60;59.90;;;;;;5107361;28;20196;-47
2023/04/18 07:51:20;;;;;;;3.33;3.03;;;17.60;59.90;;;;;;5110549;28;20294;-47
2023/04/18 07:53:51;;;;;;;3.20;2.80;;;17.60;59.90;;;;;;5083606;28;20205;-47
2023/04/18 07:56:22;;;;;;;3.97;3.57;;;17.60;59.80;;;;;;5113232;28;20235;-47
2023/04/18 07:58:51;;;;;;;4.30;3.33;;;17.60;59.80;;;;;;5108517;28;20201;-50
2023/04/18 08:01:34;;;;;;;4.10;3.17;;;17.60;59.90;;;;;;5097682;28;20536;-47
2023/04/18 08:04:03;;;;;;;3.40;3.10;;;17.60;59.80;;;;;;5095371;27;20216;-54
2023/04/18 08:06:33;;;;;;;3.20;2.90;;;17.60;59.70;;;;;;5108242;28;20258;-46
2023/04/18 08:09:06;;;;;;;3.90;3.53;;;17.60;59.80;;;;;;5096835;28;20283;-47
2023/04/18 08:11:33;;;;;;;3.37;2.93;;;17.60;59.80;;;;;;5099966;28;20646;-48
2023/04/18 08:14:03;;;;;;;3.83;3.27;;;17.70;59.90;;;;;;5095430;28;20260;-47
2023/04/18 08:16:34;;;;;;;4.67;3.60;;;17.60;59.80;;;;;;5092957;28;20229;-47
2023/04/18 08:19:05;;;;;;;3.43;3.13;;;17.60;59.80;;;;;;5103061;28;20277;-48
2023/04/18 08:21:42;;;;;;;3.50;3.20;;;17.60;59.80;;;;;;5105616;28;20192;-46
2023/04/18 08:24:15;;;;;;;4.37;3.53;;;17.60;59.70;;;;;;5098253;28;20200;-46
2023/04/18 08:26:46;;;;;;;3.87;3.47;;;17.60;59.70;;;;;;5099994;28;20193;-47
2023/04/18 08:29:14;;;;;;;3.93;3.40;;;17.60;59.70;;;;;;5094725;28;20315;-46
2023/04/18 08:31:46;;;;;;;4.03;3.20;;;17.60;59.70;;;;;;5112084;28;20201;-46
2023/04/18 08:34:18;;;;;;;3.70;3.40;;;17.70;59.80;;;;;;5098197;28;20342;-48
2023/04/18 08:36:58;;;;;;;3.60;3.30;;;17.60;59.70;;;;;;5097588;28;20228;-47
2023/04/18 08:39:30;;;;;;;4.17;3.77;;;17.70;59.60;;;;;;5102857;28;20219;-46
2023/04/18 08:42:09;;;;;;;4.43;3.90;;;17.70;59.60;;;;;;5097515;28;20222;-47
2023/04/18 08:44:47;;;;;;;4.00;3.70;;;17.70;59.70;;;;;;5061430;28;20200;-47
2023/04/18 08:47:19;;;;;;;4.13;3.73;;;17.70;59.50;;;;;;5081212;28;20193;-47
2023/04/18 08:49:51;;;;;;;3.93;3.43;;;17.70;59.30;;;;;;5099034;28;20226;-46
2023/04/18 08:52:23;;;;;;;4.03;3.67;;;17.70;59.40;;;;;;5097808;28;20193;-47
2023/04/18 08:54:52;;;;;;;4.20;3.80;;;17.70;59.30;;;;;;5099724;27;20220;-47
2023/04/18 08:57:29;;;;;;;4.23;3.80;;;17.70;59.50;;;;;;5098991;28;20212;-46
2023/04/18 09:00:07;;;;;;;4.80;3.70;;;17.70;59.50;;;;;;5100887;28;20408;-47
2023/04/18 09:02:45;;;;;;;5.50;4.40;;;17.70;59.40;;;;;;5103669;28;20184;-47
2023/04/18 09:05:20;;;;;;;4.60;4.20;;;17.70;59.30;;;;;;5099257;28;20672;-45
2023/04/18 09:07:56;;;;;;;4.73;3.90;;;17.70;59.20;;;;;;5100766;28;20213;-46
2023/04/18 09:10:33;;;;;;;4.03;3.63;;;17.70;59.30;;;;;;5098557;28;20212;-48
2023/04/18 09:13:04;;;;;;;4.03;3.63;;;17.70;59.30;;;;;;5075068;28;20388;-47
2023/04/18 09:15:34;;;;;;;4.03;3.63;;;17.70;59.30;;;;;;5096109;28;20204;-46
2023/04/18 09:18:09;;;;;;;3.80;3.50;;;17.70;59.30;;;;;;5093105;28;20254;-47
2023/04/18 09:20:41;;;;;;;4.37;3.73;;;17.70;59.30;;;;;;5069355;28;20201;-49
2023/04/18 09:23:20;;;;;;;4.37;3.97;;;17.70;59.20;;;;;;5075532;28;20224;-49
2023/04/18 09:25:51;;;;;;;4.23;3.70;;;17.70;59.30;;;;;;5095124;28;20622;-48
2023/04/18 09:28:31;;;;;;;4.77;4.27;;;17.80;59.40;;;;;;5097620;28;20229;-48
2023/04/18 09:31:14;;;;;;;4.83;3.73;;;17.80;59.30;;;;;;5087708;28;20204;-46
2023/04/18 09:34:02;;;;;;;4.40;3.70;;;17.80;59.40;;;;;;5075819;28;20674;-46
2023/04/18 09:36:31;;;;;;;3.70;3.30;;;17.80;59.50;;;;;;5090338;28;20188;-48
2023/04/18 09:39:06;;;;;;;4.83;3.50;;;17.80;59.30;;;;;;5081339;28;20235;-48
2023/04/18 09:41:34;;;;;;;3.83;3.37;;;17.80;59.30;;;;;;5103625;27;20650;-48
2023/04/18 09:44:11;;;;;;;3.70;3.40;;;17.80;59.20;;;;;;5106838;28;20215;-48
2023/04/18 09:46:45;;;;;;;3.27;2.97;;;17.80;58.90;;;;;;5089425;28;20249;-48
2023/04/18 09:49:17;;;;;;;3.50;3.20;;;17.90;58.80;;;;;;5108082;28;20201;-48
2023/04/18 09:51:49;;;;;;;3.80;3.43;;;17.90;59.10;;;;;;5113471;28;20200;-47
2023/04/18 09:54:21;;;;;;;3.90;3.60;;;17.90;58.90;;;;;;5104606;28;20565;-48
2023/04/18 09:56:55;;;;;;;4.00;3.60;;;17.90;58.70;;;;;;5081573;28;20232;-46
2023/04/18 09:59:50;;;;;;;3.90;3.50;;;17.90;58.90;;;;;;5092368;28;20712;-47
2023/04/18 10:02:26;;;;;;;3.53;3.23;;;17.90;59.00;;;;;;5083999;28;20218;-47
2023/04/18 10:05:08;;;;;;;3.77;3.47;;;17.90;59.00;;;;;;5100140;28;20201;-47
2023/04/18 10:07:37;;;;;;;3.60;3.30;;;17.90;58.90;;;;;;5072989;28;20224;-46
2023/04/18 10:10:08;;;;;;;3.70;3.40;;;17.90;59.10;;;;;;5079572;28;20200;-47
2023/04/18 10:12:42;;;;;;;3.63;3.27;;;17.90;59.00;;;;;;5102815;28;20208;-47
2023/04/18 10:15:11;;;;;;;3.47;3.17;;;18.00;58.90;;;;;;5104318;28;20690;-46
2023/04/18 10:17:44;;;;;;;3.80;3.50;;;18.00;58.90;;;;;;5072158;28;20236;-46
2023/04/18 10:20:34;;;;;;;3.40;3.10;;;18.00;58.80;;;;;;5057192;28;20185;-46
2023/04/18 10:23:37;;;;;;;3.27;2.97;;;18.00;58.70;;;;;;5094362;28;21018;-47
2023/04/18 10:26:17;;;;;;;3.43;3.13;;;18.00;58.70;;;;;;5091524;28;20201;-46
2023/04/18 10:29:00;;;;;;;3.40;3.10;;;18.00;58.70;;;;;;5084729;28;20224;-46
2023/04/18 10:31:38;;;;;;;3.47;3.17;;;18.10;58.50;;;;;;5101181;28;20555;-47
2023/04/18 10:34:07;;;;;;;3.47;3.17;;;18.10;58.60;;;;;;5077851;28;20207;-47
2023/04/18 10:37:04;;;;;;;3.67;3.37;;;18.00;58.60;;;;;;5101317;28;20266;-47
2023/04/18 10:40:11;;;;;;;3.30;3.03;;;18.00;58.50;;;;;;5097603;28;20547;-49
2023/04/18 10:42:46;;;;;;;3.47;3.17;;;18.10;58.60;;;;;;4991246;28;20627;-46
2023/04/18 10:45:23;;;;;;;3.80;3.50;;;18.10;58.60;;;;;;5081049;28;20282;-46
2023/04/18 10:48:31;;;;;;;3.70;3.40;;;18.00;58.40;;;;;;5084179;28;20203;-47
2023/04/18 10:51:20;;;;;;;3.37;3.07;;;18.10;58.50;;;;;;5107989;28;20203;-45
2023/04/18 10:54:09;;;;;;;3.43;3.13;;;18.10;58.60;;;;;;5096735;28;20244;-45
2023/04/18 10:56:53;;;;;;;4.00;3.67;;;18.10;58.60;;;;;;5084674;28;20211;-46
2023/04/18 10:59:47;;;;;;;4.13;2.97;;;18.10;58.60;;;;;;5110099;28;20248;-46
2023/04/18 11:02:32;;;;;;;3.63;3.33;;;18.10;58.70;;;;;;5088823;28;20185;-46
2023/04/18 11:05:21;;;;;;;4.20;3.87;;;18.10;58.60;;;;;;5106968;28;20356;-47
2023/04/18 11:07:51;;;;;;;4.40;4.00;;;18.10;58.60;;;;;;5072995;28;20552;-47
2023/04/18 11:10:26;;;;;;;4.10;3.70;;;18.10;58.60;;;;;;5080751;28;20211;-47
2023/04/18 11:13:03;;;;;;;3.80;3.50;;;18.10;58.60;;;;;;5097131;28;20741;-47
2023/04/18 11:15:35;;;;;;;4.47;4.07;;;18.10;59.20;;;;;;5081991;28;20634;-47
2023/04/18 11:18:04;;;;;;;4.30;3.90;;;18.10;58.70;;;;;;5077503;28;20228;-47
2023/04/18 11:20:46;;;;;;;3.70;3.40;;;18.10;58.60;;;;;;5060101;28;20215;-47
2023/04/18 11:23:23;;;;;;;4.13;3.73;;;18.10;58.60;;;;;;5105530;28;20211;-46
2023/04/18 11:25:59;;;;;;;3.40;3.10;;;18.10;58.60;;;;;;5100148;28;20615;-47
2023/04/18 11:28:31;;;;;;;4.13;3.73;;;18.10;58.70;;;;;;5112317;28;20232;-48
2023/04/18 11:31:09;;;;;;;3.80;3.50;;;18.20;58.50;;;;;;5100554;28;20209;-47
2023/04/18 11:33:39;;;;;;;3.87;3.47;;;18.20;58.70;;;;;;5090225;28;20196;-48
2023/04/18 11:36:12;;;;;;;4.10;3.80;;;18.20;58.60;;;;;;5113937;28;20200;-46
2023/04/18 11:38:44;;;;;;;3.87;3.57;;;18.20;58.50;;;;;;5104631;28;20649;-46
2023/04/18 11:41:17;;;;;;;5.13;3.77;;;18.20;58.40;;;;;;5079025;28;20916;-45
2023/04/18 11:43:48;;;;;;;4.13;3.73;;;18.20;58.50;;;;;;5113969;28;20218;-45
2023/04/18 11:46:19;;;;;;;4.40;3.80;;;18.20;58.40;;;;;;5114712;28;20188;-46
2023/04/18 11:48:51;;;;;;;4.53;4.13;;;18.20;58.50;;;;;;5116269;28;20272;-46
2023/04/18 11:51:42;;;;;;;4.03;3.70;;;18.20;58.50;;;;;;5108053;28;20211;-46
2023/04/18 11:54:41;;;;;;;4.03;3.70;;;18.20;58.50;;;;;;5108594;28;20208;-46
2023/04/18 11:57:28;;;;;;;4.23;3.87;;;18.20;58.50;;;;;;5077482;28;20223;-46
2023/04/18 12:00:00;;;;;;;4.07;3.77;;;18.20;58.50;;;;;;5090487;28;20193;-47
2023/04/18 12:02:41;;;;;;;4.60;4.20;;;18.20;58.60;;;;;;5089969;28;20192;-46
2023/04/18 12:05:32;;;;;;;4.77;4.23;;;18.30;58.40;;;;;;5103998;28;20805;-46
2023/04/18 12:08:12;;;;;;;5.10;4.13;;;18.30;58.40;;;;;;5080037;28;20572;-48
2023/04/18 12:11:05;;;;;;;4.73;4.23;;;18.30;58.30;;;;;;5089478;28;20491;-47
2023/04/18 12:13:35;;;;;;;4.50;4.10;;;18.30;58.40;;;;;;5106468;28;20197;-48
2023/04/18 12:16:06;;;;;;;4.57;4.00;;;18.30;58.30;;;;;;5103581;28;20211;-47
2023/04/18 12:18:38;;;;;;;4.60;4.20;;;18.30;58.20;;;;;;5093873;28;20234;-47
2023/04/18 12:21:09;;;;;;;4.50;4.10;;;18.40;58.40;;;;;;5092766;28;20193;-46
2023/04/18 12:23:41;;;;;;;4.57;4.17;;;18.30;58.30;;;;;;5092952;28;20543;-47
2023/04/18 12:26:22;;;;;;;4.87;4.40;;;18.30;58.20;;;;;;5090807;28;20201;-46
2023/04/18 12:28:52;;;;;;;5.10;4.27;;;18.30;58.10;;;;;;5061310;28;20317;-46
2023/04/18 12:31:27;;;;;;;4.97;4.47;;;18.40;58.20;;;;;;5093376;28;20200;-48
2023/04/18 12:33:59;;;;;;;4.50;4.10;;;18.40;58.30;;;;;;5110351;28;20277;-47
2023/04/18 12:36:32;;;;;;;4.80;4.40;;;18.40;58.10;;;;;;5110755;28;20215;-47
2023/04/18 12:39:05;;;;;;;4.27;3.97;;;18.40;58.20;;;;;;5101560;28;20208;-47
2023/04/18 12:41:34;;;;;;;4.50;4.10;;;18.40;58.10;;;;;;5107909;28;20211;-48
2023/04/18 12:44:16;;;;;;;5.20;4.70;;;18.40;58.10;;;;;;5107051;28;20220;-47
2023/04/18 12:46:48;;;;;;;4.83;4.43;;;18.40;58.00;;;;;;5107614;28;20248;-48
2023/04/18 12:49:18;;;;;;;5.00;4.60;;;18.40;58.00;;;;;;5091373;28;20280;-48
2023/04/18 12:51:46;;;;;;;5.57;5.07;;;18.50;58.00;;;;;;5086129;28;20703;-48
2023/04/18 12:54:16;;;;;;;5.53;5.03;;;18.40;57.90;;;;;;5097651;28;20278;-48
2023/04/18 12:56:45;;;;;;;4.60;4.20;;;18.50;58.00;;;;;;5099696;28;20208;-48
2023/04/18 12:59:14;;;;;;;5.43;5.03;;;18.50;58.00;;;;;;5104084;28;20257;-48
2023/04/18 13:01:57;;;;;;;5.80;5.20;;;18.50;58.00;;;;;;5102034;28;20278;-46
2023/04/18 13:04:27;;;;;;;5.30;4.80;;;18.50;57.90;;;;;;5067529;28;20200;-46
2023/04/18 13:07:05;;;;;;;5.17;4.67;;;18.50;57.90;;;;;;5103530;28;20285;-48
2023/04/18 13:09:37;;;;;;;5.47;4.97;;;18.50;58.00;;;;;;5108323;28;20196;-48
2023/04/18 13:12:08;;;;;;;5.20;4.80;;;18.60;58.10;;;;;;5094315;28;20195;-48
2023/04/18 13:14:46;;;;;;;5.10;4.70;;;18.50;57.90;;;;;;5105051;28;20188;-48
2023/04/18 13:17:25;;;;;;;5.77;5.27;;;18.60;57.90;;;;;;5085761;28;20209;-45